Line Lexington, Pennsylvania
Current Conditions -  °F | °C
As of 2:54 AM on Saturday 25 Oct 2014 (Local Time) from KDYL Reporting Station
Clear Clear  
Wind Chill: 47°   Ceiling: Unl
Heat Index: 47°   Visibility: 10mi
Dew Point: 34°   Wind: 3mph
Humidity: 61%   Direction: 360°N
Pressure: 29.89"   Gusts: NA
Location:  40.29°N, 75.26°W
Report Text: KDYL 250654Z AUTO 36003KT 10SM CLR 08/01 A2989 RMK AO2 SLP123 T00830011
Loading
Personal Weather Stations






























Interactive Weather Map
Tropical Storm Tracking
New forecast layout! Learn more

10-Day Weather Forecast

Advertisements
Track Severe Weather on mobile